ایروان, ارمنستان

02:52 PM +04 on ژانویه 17, 2017 (GMT +0400)
Zvartnots | | Change Station

Elev 2838 ft 40.15 °N, 44.40 °E | Updated 22 minutes ago

بیشتر ابری
بیشتر ابری
18 °F
Feels Like 18 °F
N
1
باد متغير باد from متغير

امروز
High -- | Low -- °F
--% Chance of Precip.
دیروز
High -- | Low -- °F
Precip. -- در
فشار 30.36 در
ديد 1.0 مايل، ميل (در برابر كيلومتر
ابری بیشتر ابری 700 ft
قطره شبنم 12 °F
رطوبت 79%
بارش باران 0.00 در
برف عمیق Not available.
8:21 AM 6:02 PM
Waning Gibbous, 73% visible
METAR UDYZ 171030Z VRB01KT 1600 R09/1600U BR BKN007 M08/M11 Q1028 R09/000070 NOSIG
فشار 30.36 در
ديد 1.0 مايل، ميل (در برابر كيلومتر
ابری بیشتر ابری 700 ft
قطره شبنم 12 °F
رطوبت 79%
بارش باران 0.00 در
برف عمیق Not available.
8:21 AM 6:02 PM
Waning Gibbous, 73% visible
METAR UDYZ 171030Z VRB01KT 1600 R09/1600U BR BKN007 M08/M11 Q1028 R09/000070 NOSIG

Get Your Daily Forecast Email!

Thanks for signing up!

Be on the lookout for a verification email in your inbox.

You'll start receiving the daily forecast at 8 AM.

×

10-Day Weather Forecast

×

Almanac

ستاره شناسی

Jan. 17, 2017 Rise Set
وقت حقیقی
تاریک و روشن اجتماعی
تاریک روشن دریایی
شفق و فلق نجومی
ماه
میزان روشنایی روز
طول روز
Tomorrow will be .
, % of the Moon is Illuminated

Today's Extremes

Country Highs Country Lows

Community

WunderPhotos

Upload Photos

1,962,540 photos uploaded!

WunderBlog® & News

Nearby

تمیزی هوا

  تمیزی هوا AQ Index آلاینده
Not available.

عمق برف

Station Depth Elevation

Earthquake Activity

شهر Distance Mag. Time & Date
Minimum magnitude displayed is 2.5.

Coastal Water Temperatures

منطقه درجه حرارت

Stations

Nearby Weather Stations

Station Location دما باد سرد قطره شبنم رطوبت باد Precip. Elev ارتقا دادن Type